createdAt,value
2022-11-12T00:00:50.383Z,9.40
2022-11-12T00:03:51.991Z,8.23
2022-11-12T00:06:53.565Z,5.78
2022-11-12T00:09:55.162Z,8.02
2022-11-12T00:12:56.688Z,8.15
2022-11-12T00:15:58.228Z,9.32
2022-11-12T00:18:59.786Z,11.85
2022-11-12T00:22:01.296Z,7.47
2022-11-12T00:25:03.940Z,8.52
2022-11-12T00:28:08.852Z,9.05
2022-11-12T00:31:11.839Z,12.60
2022-11-12T00:34:13.474Z,12.73
2022-11-12T00:37:15.003Z,12.55
2022-11-12T00:40:16.628Z,8.23
2022-11-12T00:43:18.301Z,10.52
2022-11-12T00:46:19.880Z,10.25
2022-11-12T00:49:21.804Z,12.95
2022-11-12T00:52:23.368Z,15.20
2022-11-12T00:55:24.945Z,15.07
2022-11-12T00:58:29.093Z,14.07
2022-11-12T01:01:30.658Z,14.13
2022-11-12T01:04:32.382Z,13.15
2022-11-12T01:07:34.875Z,12.82
2022-11-12T01:10:36.662Z,16.55
2022-11-12T01:13:43.986Z,11.82
2022-11-12T01:16:46.319Z,12.60
2022-11-12T01:19:47.869Z,12.93
2022-11-12T01:22:49.449Z,12.70
2022-11-12T01:25:51.016Z,10.13
2022-11-12T01:28:53.144Z,13.55
2022-11-12T01:31:54.765Z,14.40
2022-11-12T01:34:56.326Z,9.85
2022-11-12T01:37:57.922Z,9.35
2022-11-12T01:40:59.441Z,15.27
2022-11-12T01:44:20.319Z,12.75
2022-11-12T01:50:33.808Z,11.55
2022-11-12T01:53:40.457Z,11.32
2022-11-12T01:56:42.757Z,10.68
2022-11-12T01:59:46.553Z,10.02
2022-11-12T02:02:55.019Z,11.40
2022-11-12T02:06:01.513Z,10.70
2022-11-12T02:09:03.744Z,8.45
2022-11-12T02:12:06.059Z,9.98
2022-11-12T02:15:08.000Z,11.32
2022-11-12T02:18:09.571Z,8.98
2022-11-12T02:21:11.205Z,7.47
2022-11-12T02:24:12.698Z,8.95
2022-11-12T02:27:14.404Z,7.25
2022-11-12T02:30:16.094Z,7.78
2022-11-12T02:33:17.616Z,9.07
2022-11-12T02:36:19.283Z,8.45
2022-11-12T02:39:20.866Z,7.43
2022-11-12T02:42:22.416Z,8.55
2022-11-12T02:45:24.050Z,10.23
2022-11-12T02:48:25.834Z,13.93
2022-11-12T02:51:27.542Z,8.57
2022-11-12T02:54:29.073Z,10.80
2022-11-12T02:57:30.877Z,9.85
2022-11-12T03:00:32.430Z,11.20
2022-11-12T03:03:33.934Z,11.52
2022-11-12T03:06:35.514Z,8.75
2022-11-12T03:09:37.124Z,11.93
2022-11-12T03:12:38.732Z,9.55
2022-11-12T03:15:40.251Z,9.38
2022-11-12T03:18:41.907Z,9.35
2022-11-12T03:21:43.453Z,11.20
2022-11-12T03:24:44.999Z,7.60
2022-11-12T03:27:46.554Z,8.60
2022-11-12T03:30:48.199Z,7.85
2022-11-12T03:33:49.718Z,10.65
2022-11-12T03:36:51.281Z,7.28
2022-11-12T03:39:52.786Z,6.95
2022-11-12T03:42:54.899Z,6.18
2022-11-12T03:45:56.412Z,10.35
2022-11-12T03:48:59.185Z,8.95
2022-11-12T03:52:00.708Z,6.05
2022-11-12T03:55:02.235Z,5.90
2022-11-12T03:58:03.903Z,9.18
2022-11-12T04:01:05.547Z,8.95
2022-11-12T04:04:07.111Z,7.70
2022-11-12T04:07:27.545Z,8.43
2022-11-12T04:14:42.140Z,7.07
2022-11-12T04:18:02.167Z,9.35
2022-11-12T04:21:22.546Z,7.53
2022-11-12T04:24:51.072Z,8.18
2022-11-12T04:27:52.605Z,9.23
2022-11-12T04:30:54.162Z,11.07
2022-11-12T04:33:55.698Z,8.98
2022-11-12T04:36:57.238Z,12.05
2022-11-12T04:40:18.733Z,7.70
2022-11-12T04:43:38.963Z,7.82
2022-11-12T04:46:40.523Z,9.27
2022-11-12T04:49:42.035Z,6.78
2022-11-12T04:52:44.198Z,8.45
2022-11-12T04:55:45.735Z,6.60
2022-11-12T04:58:47.277Z,7.85
2022-11-12T05:01:48.861Z,8.95
2022-11-12T05:04:50.467Z,6.50
2022-11-12T05:07:51.974Z,10.07
2022-11-12T05:10:53.585Z,8.68
2022-11-12T05:13:55.105Z,9.00
2022-11-12T05:16:56.714Z,6.97
2022-11-12T05:19:58.214Z,7.78
2022-11-12T05:23:06.804Z,8.57
2022-11-12T05:26:08.801Z,8.30
2022-11-12T05:29:10.342Z,7.43
2022-11-12T05:32:14.894Z,8.32
2022-11-12T05:35:16.583Z,9.73
2022-11-12T05:38:18.103Z,8.25
2022-11-12T05:41:20.254Z,7.72
2022-11-12T05:44:22.075Z,9.07
2022-11-12T05:47:23.621Z,9.85
2022-11-12T05:50:28.178Z,11.98
2022-11-12T05:53:36.231Z,10.80
2022-11-12T05:56:38.687Z,8.05
2022-11-12T05:59:40.210Z,8.57
2022-11-12T06:02:43.027Z,7.65
2022-11-12T06:05:44.756Z,10.23
2022-11-12T06:08:46.350Z,12.68
2022-11-12T06:11:47.887Z,9.82
2022-11-12T06:14:49.409Z,10.02
2022-11-12T06:17:51.000Z,8.15
2022-11-12T06:21:11.442Z,8.82
2022-11-12T06:24:13.085Z,9.07
2022-11-12T06:27:14.617Z,10.23
2022-11-12T06:30:21.658Z,9.85
2022-11-12T06:33:26.127Z,7.70
2022-11-12T06:36:27.657Z,14.43
2022-11-12T06:39:29.196Z,9.52
2022-11-12T06:42:30.928Z,13.43
2022-11-12T06:45:32.463Z,8.50
2022-11-12T06:48:34.045Z,7.97
2022-11-12T06:51:35.765Z,8.15
2022-11-12T06:54:37.342Z,11.77
2022-11-12T06:57:38.908Z,7.47
2022-11-12T07:00:40.489Z,8.65
2022-11-12T07:03:43.949Z,8.18
2022-11-12T07:06:45.606Z,10.57
2022-11-12T07:09:47.188Z,7.88
2022-11-12T07:12:53.197Z,8.63
2022-11-12T07:15:58.160Z,9.45
2022-11-12T07:18:59.758Z,7.10
2022-11-12T07:22:01.269Z,13.55
2022-11-12T07:25:03.040Z,9.43
2022-11-12T07:28:04.657Z,12.13
2022-11-12T07:31:09.709Z,10.13
2022-11-12T07:34:11.227Z,18.17
2022-11-12T07:37:12.872Z,9.27
2022-11-12T07:40:15.142Z,9.40
2022-11-12T07:43:16.684Z,17.27
2022-11-12T07:46:19.435Z,12.85
2022-11-12T07:49:21.036Z,12.63
2022-11-12T07:52:22.701Z,16.00
2022-11-12T07:55:24.266Z,14.35
2022-11-12T07:58:27.171Z,11.23
2022-11-12T08:01:36.694Z,13.80
2022-11-12T08:04:38.239Z,12.55
2022-11-12T08:07:39.855Z,10.82
2022-11-12T08:10:41.636Z,16.63
2022-11-12T08:13:43.319Z,13.95
2022-11-12T08:16:46.547Z,13.40
2022-11-12T08:19:48.167Z,14.20
2022-11-12T08:22:49.909Z,10.93
2022-11-12T08:25:51.506Z,20.77
2022-11-12T08:28:53.052Z,35.33
2022-11-12T08:31:54.617Z,36.72
2022-11-12T08:34:56.180Z,28.73
2022-11-12T08:38:02.527Z,36.75
2022-11-12T08:41:06.641Z,30.85
2022-11-12T08:44:08.974Z,26.65
2022-11-12T08:47:10.776Z,23.42
2022-11-12T08:50:12.460Z,21.05
2022-11-12T08:53:14.170Z,20.73
2022-11-12T08:56:15.997Z,19.67
2022-11-12T08:59:17.636Z,19.50
2022-11-12T09:02:19.251Z,13.30
2022-11-12T09:05:20.841Z,10.60
2022-11-12T09:08:25.287Z,9.85
2022-11-12T09:11:27.169Z,10.05
2022-11-12T09:14:29.938Z,12.60
2022-11-12T09:17:32.510Z,11.65
2022-11-12T09:20:34.359Z,13.77
2022-11-12T09:23:36.743Z,21.10
2022-11-12T09:26:38.247Z,18.88
2022-11-12T09:29:39.790Z,22.58
2022-11-12T09:32:41.411Z,23.20
2022-11-12T09:35:43.601Z,26.25
2022-11-12T09:38:45.219Z,25.67
2022-11-12T09:41:47.100Z,19.60
2022-11-12T09:44:57.222Z,19.85
2022-11-12T09:48:08.318Z,18.42
2022-11-12T09:51:21.604Z,17.25
2022-11-12T09:54:29.929Z,20.25
2022-11-12T09:57:33.446Z,23.13
2022-11-12T10:00:35.818Z,16.30
2022-11-12T10:03:46.637Z,17.60
2022-11-12T10:10:20.249Z,14.55
2022-11-12T10:13:59.586Z,16.63
2022-11-12T10:17:27.920Z,15.38
2022-11-12T10:20:38.962Z,8.50
2022-11-12T10:23:46.171Z,8.65
2022-11-12T10:26:52.139Z,10.68
2022-11-12T10:29:59.639Z,5.20
2022-11-12T10:33:01.183Z,5.22
2022-11-12T10:36:19.986Z,3.15
2022-11-12T10:39:41.989Z,3.33
2022-11-12T10:43:16.093Z,7.00
2022-11-12T10:46:26.700Z,18.92
2022-11-12T10:49:28.256Z,21.58
2022-11-12T10:52:29.910Z,19.13
2022-11-12T10:55:35.040Z,22.27
2022-11-12T10:58:36.612Z,25.17
2022-11-12T11:01:43.016Z,24.95
2022-11-12T11:04:47.041Z,19.85
2022-11-12T11:07:51.485Z,24.92
2022-11-12T11:11:14.628Z,23.33
2022-11-12T11:14:22.357Z,19.80
2022-11-12T11:17:23.902Z,23.30
2022-11-12T11:20:43.993Z,19.42
2022-11-12T11:24:14.411Z,25.85
2022-11-12T11:27:25.318Z,18.35
2022-11-12T11:30:27.211Z,16.40
2022-11-12T11:33:37.687Z,18.25
2022-11-12T11:36:53.764Z,18.17
2022-11-12T11:40:16.511Z,14.60
2022-11-12T11:43:34.068Z,20.83
2022-11-12T11:47:04.784Z,15.68
2022-11-12T11:50:17.099Z,22.45
2022-11-12T11:53:18.626Z,16.77
2022-11-12T11:56:28.303Z,16.50
2022-11-12T12:00:07.200Z,18.27
2022-11-12T12:03:19.601Z,17.52
2022-11-12T12:06:32.076Z,22.90
2022-11-12T12:09:47.862Z,19.92
2022-11-12T12:13:05.303Z,12.32
2022-11-12T12:16:15.460Z,20.83
2022-11-12T12:19:41.451Z,19.75
2022-11-12T12:22:59.056Z,7.75
2022-11-12T12:26:03.045Z,13.90
2022-11-12T12:29:13.710Z,6.05
2022-11-12T12:35:50.428Z,23.48
2022-11-12T12:38:59.436Z,21.02
2022-11-12T12:42:09.446Z,20.15
2022-11-12T12:45:38.134Z,20.05
2022-11-12T12:48:45.068Z,21.88
2022-11-12T12:51:50.338Z,16.92
2022-11-12T12:54:56.222Z,6.03
2022-11-12T12:58:00.923Z,5.25
2022-11-12T13:01:19.636Z,5.70
2022-11-12T13:04:53.002Z,4.40
2022-11-12T13:07:59.053Z,4.75
2022-11-12T13:11:00.642Z,2.90
2022-11-12T13:14:31.424Z,3.10
2022-11-12T13:17:47.796Z,6.18
2022-11-12T13:21:10.951Z,4.03
2022-11-12T13:24:14.153Z,5.55
2022-11-12T13:27:44.463Z,5.00
2022-11-12T13:30:45.971Z,3.70
2022-11-12T13:33:48.247Z,6.88
2022-11-12T13:36:58.278Z,5.88
2022-11-12T13:40:03.968Z,4.30
2022-11-12T13:43:40.335Z,3.78
2022-11-12T13:46:44.086Z,5.35
2022-11-12T13:49:47.302Z,4.25
2022-11-12T13:52:49.751Z,4.38
2022-11-12T13:55:53.448Z,4.53
2022-11-12T13:58:55.211Z,5.13
2022-11-12T14:01:56.843Z,3.75
2022-11-12T14:04:58.493Z,4.53
2022-11-12T14:08:11.918Z,3.67
2022-11-12T14:11:19.587Z,4.00
2022-11-12T14:14:47.308Z,5.15
2022-11-12T14:18:14.803Z,7.00
2022-11-12T14:21:17.982Z,7.95
2022-11-12T14:24:20.291Z,3.83
2022-11-12T14:27:34.013Z,6.78
2022-11-12T14:30:44.580Z,6.00
2022-11-12T14:36:49.077Z,2.97
2022-11-12T14:39:50.796Z,7.40
2022-11-12T14:42:53.013Z,4.82
2022-11-12T14:45:56.461Z,3.03
2022-11-12T14:49:12.207Z,8.98
2022-11-12T14:52:31.322Z,8.02
2022-11-12T14:55:36.292Z,3.60
2022-11-12T14:58:39.795Z,11.43
2022-11-12T15:05:27.339Z,6.38
2022-11-12T15:08:34.888Z,4.78
2022-11-12T15:11:42.470Z,6.60
2022-11-12T15:14:44.048Z,3.80
2022-11-12T15:17:45.635Z,8.15
2022-11-12T15:21:11.786Z,5.05
2022-11-12T15:24:43.679Z,5.53
2022-11-12T15:27:45.303Z,7.40
2022-11-12T15:31:02.465Z,9.93
2022-11-12T15:34:41.230Z,15.98
2022-11-12T15:37:43.324Z,7.95
2022-11-12T15:40:54.530Z,13.85
2022-11-12T15:43:59.461Z,15.13
2022-11-12T15:47:01.570Z,15.93
2022-11-12T15:50:15.844Z,24.75
2022-11-12T15:53:17.430Z,14.75
2022-11-12T15:56:22.135Z,21.13
2022-11-12T15:59:23.719Z,15.70
2022-11-12T16:02:25.856Z,18.85
2022-11-12T16:05:27.365Z,16.88
2022-11-12T16:08:28.890Z,17.00
2022-11-12T16:11:36.344Z,22.48
2022-11-12T16:14:39.176Z,22.00
2022-11-12T16:17:40.977Z,28.02
2022-11-12T16:20:42.614Z,22.13
2022-11-12T16:23:44.560Z,25.83
2022-11-12T16:26:46.198Z,20.50
2022-11-12T16:29:47.721Z,21.95
2022-11-12T16:32:49.362Z,20.58
2022-11-12T16:35:51.265Z,17.80
2022-11-12T16:38:52.881Z,21.55
2022-11-12T16:41:54.442Z,21.92
2022-11-12T16:44:56.021Z,25.00
2022-11-12T16:47:58.205Z,27.42
2022-11-12T16:51:00.748Z,23.90
2022-11-12T16:54:02.494Z,21.88
2022-11-12T16:57:04.176Z,23.98
2022-11-12T17:00:07.126Z,23.75
2022-11-12T17:03:12.659Z,25.63
2022-11-12T17:06:14.192Z,19.50
2022-11-12T17:09:16.534Z,28.30
2022-11-12T17:12:18.045Z,22.85
2022-11-12T17:15:19.926Z,22.80
2022-11-12T17:18:21.432Z,23.70
2022-11-12T17:21:23.714Z,28.83
2022-11-12T17:24:28.679Z,26.00
2022-11-12T17:27:30.803Z,23.35
2022-11-12T17:30:35.118Z,19.98
2022-11-12T17:33:49.477Z,24.70
2022-11-12T17:36:50.977Z,24.20
2022-11-12T17:39:53.613Z,24.85
2022-11-12T17:42:55.143Z,25.95
2022-11-12T17:45:57.452Z,28.38
2022-11-12T17:48:59.042Z,29.45
2022-11-12T17:52:03.239Z,24.85
2022-11-12T17:55:14.578Z,29.70
2022-11-12T17:58:16.565Z,24.25
2022-11-12T18:01:21.825Z,26.55
2022-11-12T18:04:40.896Z,25.08
2022-11-12T18:07:42.788Z,25.30
2022-11-12T18:10:45.486Z,24.92
2022-11-12T18:13:47.116Z,24.60
2022-11-12T18:16:49.175Z,24.10
2022-11-12T18:19:51.432Z,23.42
2022-11-12T18:22:52.980Z,24.38
2022-11-12T18:25:54.542Z,22.40
2022-11-12T18:28:57.964Z,24.23
2022-11-12T18:31:59.579Z,22.70
2022-11-12T18:35:01.155Z,26.83
2022-11-12T18:38:02.750Z,27.30
2022-11-12T18:41:08.181Z,26.48
2022-11-12T18:44:09.964Z,15.50
2022-11-12T18:47:11.708Z,19.50
2022-11-12T18:50:13.415Z,12.60
2022-11-12T18:53:14.979Z,15.82
2022-11-12T18:56:19.075Z,16.73
2022-11-12T18:59:21.826Z,16.33
2022-11-12T19:02:23.395Z,19.35
2022-11-12T19:05:25.121Z,15.40
2022-11-12T19:08:26.706Z,17.88
2022-11-12T19:11:28.279Z,19.63
2022-11-12T19:14:30.261Z,20.58
2022-11-12T19:17:31.874Z,21.10
2022-11-12T19:20:33.392Z,22.00
2022-11-12T19:23:35.526Z,19.98
2022-11-12T19:26:37.050Z,23.25
2022-11-12T19:29:38.574Z,24.13
2022-11-12T19:32:40.212Z,23.08
2022-11-12T19:35:41.925Z,21.70
2022-11-12T19:38:43.808Z,32.50
2022-11-12T19:41:45.317Z,27.55
2022-11-12T19:44:47.009Z,29.67
2022-11-12T19:47:50.666Z,30.75
2022-11-12T19:50:52.870Z,34.88
2022-11-12T19:53:54.515Z,36.17
2022-11-12T19:56:56.082Z,36.25
2022-11-12T19:59:57.607Z,42.50
2022-11-12T20:02:59.954Z,43.67
2022-11-12T20:06:03.782Z,50.50
2022-11-12T20:09:05.439Z,46.50
2022-11-12T20:12:07.254Z,47.20
2022-11-12T20:15:09.426Z,49.63
2022-11-12T20:18:10.968Z,49.60
2022-11-12T20:21:12.583Z,49.58
2022-11-12T20:24:14.097Z,53.67
2022-11-12T20:27:17.428Z,61.25
2022-11-12T20:30:18.988Z,49.10
2022-11-12T20:33:20.547Z,59.40
2022-11-12T20:36:23.169Z,57.22
2022-11-12T20:39:24.715Z,59.67
2022-11-12T20:42:26.248Z,53.42
2022-11-12T20:45:27.891Z,54.35
2022-11-12T20:48:29.879Z,62.65
2022-11-12T20:51:33.208Z,62.70
2022-11-12T20:54:34.788Z,74.63
2022-11-12T20:57:36.393Z,70.00
2022-11-12T21:00:38.885Z,68.63
2022-11-12T21:03:40.740Z,94.68
2022-11-12T21:06:42.320Z,87.85
2022-11-12T21:09:44.722Z,83.50
2022-11-12T21:12:46.261Z,59.38
2022-11-12T21:15:48.113Z,58.38
2022-11-12T21:18:49.640Z,53.38
2022-11-12T21:21:51.180Z,52.50
2022-11-12T21:24:52.699Z,43.55
2022-11-12T21:27:54.339Z,49.63
2022-11-12T21:31:02.743Z,50.10
2022-11-12T21:34:04.824Z,49.00
2022-11-12T21:37:06.372Z,42.03
2022-11-12T21:40:08.664Z,48.15
2022-11-12T21:43:10.201Z,43.50
2022-11-12T21:46:25.130Z,48.80
2022-11-12T21:49:26.714Z,51.30
2022-11-12T21:52:28.811Z,45.42
2022-11-12T21:55:30.322Z,43.78
2022-11-12T21:58:31.955Z,47.90
2022-11-12T22:01:34.754Z,52.17
2022-11-12T22:04:36.417Z,59.28
2022-11-12T22:07:37.924Z,50.67
2022-11-12T22:10:39.470Z,59.20
2022-11-12T22:13:42.260Z,60.40
2022-11-12T22:16:43.995Z,55.03
2022-11-12T22:19:45.520Z,61.60
2022-11-12T22:22:47.035Z,55.03
2022-11-12T22:25:50.531Z,63.53
2022-11-12T22:28:56.872Z,65.32
2022-11-12T22:31:58.431Z,64.70
2022-11-12T22:35:00.026Z,58.20
2022-11-12T22:38:01.581Z,60.67
2022-11-12T22:41:05.457Z,64.07
2022-11-12T22:44:07.089Z,65.65
2022-11-12T22:47:08.589Z,75.10
2022-11-12T22:50:10.264Z,66.45
2022-11-12T22:53:11.775Z,67.43
2022-11-12T22:56:15.918Z,71.55
2022-11-12T22:59:17.422Z,67.88
2022-11-12T23:02:18.990Z,66.97
2022-11-12T23:05:20.505Z,56.60
2022-11-12T23:08:22.057Z,59.10
2022-11-12T23:11:33.013Z,60.13
2022-11-12T23:14:39.904Z,69.18
2022-11-12T23:17:41.420Z,53.97
2022-11-12T23:20:46.057Z,52.72
2022-11-12T23:23:47.668Z,63.50
2022-11-12T23:26:49.251Z,59.65
2022-11-12T23:29:53.203Z,59.97
2022-11-12T23:32:54.811Z,95.72
2022-11-12T23:36:15.093Z,66.57
2022-11-12T23:39:16.657Z,74.88
2022-11-12T23:42:18.268Z,73.28
2022-11-12T23:45:19.875Z,67.32
2022-11-12T23:48:22.209Z,72.75
2022-11-12T23:51:23.800Z,61.38
2022-11-12T23:54:25.406Z,63.42
2022-11-12T23:57:26.984Z,60.45
